Terminal Aerodrome Forecast
Issued by NWS

Home | Current Version | Previous Version | Text Only | Print | Product List | Glossary On
Versions: 1 2 3 4 5 6 7 8 9 10 11 12 13 14 15 16 17 18 19 20 21 22 23 24
000
FTUS43 KLSX 270500
TAFUIN
TAF
KUIN 270520Z 2706/2806 31006KT P6SM BKN035
     FM270700 34010KT P6SM BKN025
     FM271500 36007KT P6SM SCT025
     FM272300 09006KT P6SM SCT025=

USA.gov is the U.S. government's official web portal to all federal, state and local government web resources and services.